createdAt,value
2023-02-11T00:02:58.597Z,95.70
2023-02-11T00:07:22.466Z,95.90
2023-02-11T00:11:46.341Z,96.00
2023-02-11T00:16:14.594Z,96.20
2023-02-11T00:20:40.513Z,96.30
2023-02-11T00:25:05.300Z,96.00
2023-02-11T00:29:29.325Z,95.70
2023-02-11T00:33:55.161Z,95.50
2023-02-11T00:38:19.150Z,95.20
2023-02-11T00:42:43.091Z,95.20
2023-02-11T00:47:06.944Z,95.30
2023-02-11T00:51:32.184Z,95.40
2023-02-11T00:55:55.993Z,95.40
2023-02-11T01:00:23.374Z,95.50
2023-02-11T01:04:47.316Z,95.60
2023-02-11T01:09:13.148Z,95.60
2023-02-11T01:13:38.419Z,95.50
2023-02-11T01:18:02.512Z,95.60
2023-02-11T01:22:26.497Z,95.80
2023-02-11T01:26:52.557Z,95.80
2023-02-11T01:31:16.811Z,95.70
2023-02-11T01:35:40.951Z,95.60
2023-02-11T01:40:07.171Z,95.80
2023-02-11T01:44:35.321Z,96.00
2023-02-11T01:49:04.218Z,96.00
2023-02-11T01:53:46.322Z,96.00
2023-02-11T01:58:10.139Z,96.00
2023-02-11T02:02:41.695Z,96.10
2023-02-11T02:07:12.258Z,96.10
2023-02-11T02:11:38.184Z,96.10
2023-02-11T02:16:03.634Z,96.20
2023-02-11T02:21:17.975Z,96.00
2023-02-11T02:26:11.680Z,95.80
2023-02-11T02:31:06.132Z,95.50
2023-02-11T02:35:41.291Z,95.30
2023-02-11T02:40:10.837Z,95.00
2023-02-11T02:44:35.542Z,94.80
2023-02-11T02:49:00.347Z,94.50
2023-02-11T02:53:33.884Z,94.30
2023-02-11T02:58:37.068Z,94.30
2023-02-11T03:03:16.003Z,94.00
2023-02-11T03:07:44.702Z,93.80
2023-02-11T03:12:11.697Z,93.70
2023-02-11T03:16:39.285Z,93.60
2023-02-11T03:21:04.670Z,93.40
2023-02-11T03:25:32.064Z,93.30
2023-02-11T03:30:02.773Z,93.20
2023-02-11T03:34:31.959Z,93.20
2023-02-11T03:38:59.852Z,93.10
2023-02-11T03:43:27.381Z,93.00
2023-02-11T03:47:56.148Z,93.00
2023-02-11T03:52:21.579Z,93.10
2023-02-11T03:56:50.621Z,93.10
2023-02-11T04:01:14.906Z,93.10
2023-02-11T04:05:40.804Z,93.10
2023-02-11T04:10:05.652Z,93.10
2023-02-11T04:14:29.543Z,93.10
2023-02-11T04:18:53.860Z,93.00
2023-02-11T04:23:19.080Z,93.00
2023-02-11T04:27:43.004Z,93.00
2023-02-11T04:32:07.468Z,92.90
2023-02-11T04:36:31.310Z,92.80
2023-02-11T04:40:56.715Z,92.70
2023-02-11T04:45:21.007Z,92.70
2023-02-11T04:49:45.103Z,92.60
2023-02-11T04:54:09.514Z,92.60
2023-02-11T04:58:34.806Z,92.50
2023-02-11T05:02:58.812Z,92.30
2023-02-11T05:07:22.772Z,92.20
2023-02-11T05:11:46.650Z,92.10
2023-02-11T05:16:12.226Z,92.00
2023-02-11T05:20:36.061Z,91.80
2023-02-11T05:25:00.111Z,91.80
2023-02-11T05:29:24.136Z,91.70
2023-02-11T05:33:49.344Z,91.70
2023-02-11T05:38:14.129Z,91.70
2023-02-11T05:42:38.222Z,91.60
2023-02-11T05:47:02.086Z,91.60
2023-02-11T05:51:27.670Z,91.60
2023-02-11T05:55:51.840Z,91.70
2023-02-11T06:00:17.289Z,91.70
2023-02-11T06:04:41.581Z,91.70
2023-02-11T06:09:07.010Z,91.80
2023-02-11T06:13:31.007Z,92.00
2023-02-11T06:17:55.092Z,92.10
2023-02-11T06:22:19.086Z,92.20
2023-02-11T06:26:44.289Z,92.30
2023-02-11T06:31:09.769Z,92.50
2023-02-11T06:35:35.415Z,92.70
2023-02-11T06:39:59.561Z,92.90
2023-02-11T06:44:24.843Z,93.00
2023-02-11T06:48:48.878Z,93.20
2023-02-11T06:53:12.726Z,93.30
2023-02-11T06:57:36.614Z,93.40
2023-02-11T07:02:01.905Z,93.50
2023-02-11T07:06:28.311Z,93.50
2023-02-11T07:10:52.302Z,93.50
2023-02-11T07:15:16.161Z,93.50
2023-02-11T07:19:41.513Z,93.50
2023-02-11T07:24:10.784Z,93.60
2023-02-11T07:28:36.491Z,93.70
2023-02-11T07:33:00.332Z,93.70
2023-02-11T07:37:26.270Z,93.60
2023-02-11T07:41:50.701Z,93.60
2023-02-11T07:46:17.339Z,93.40
2023-02-11T07:50:41.223Z,93.30
2023-02-11T07:55:07.203Z,93.10
2023-02-11T07:59:31.303Z,93.20
2023-02-11T08:03:56.553Z,93.20
2023-02-11T08:08:20.494Z,93.10
2023-02-11T08:12:45.903Z,93.10
2023-02-11T08:17:12.724Z,92.90
2023-02-11T08:21:36.577Z,92.80
2023-02-11T08:26:03.029Z,92.70
2023-02-11T08:30:31.438Z,92.70
2023-02-11T08:34:55.751Z,92.80
2023-02-11T08:39:24.334Z,92.80
2023-02-11T08:43:58.628Z,92.60
2023-02-11T08:48:34.231Z,92.30
2023-02-11T08:52:58.276Z,92.00
2023-02-11T08:57:22.436Z,92.10
2023-02-11T09:01:53.571Z,92.00
2023-02-11T09:06:26.361Z,91.80
2023-02-11T09:10:57.976Z,91.90
2023-02-11T09:15:26.292Z,92.40
2023-02-11T09:20:00.990Z,92.60
2023-02-11T09:24:34.877Z,92.10
2023-02-11T09:29:02.160Z,91.50
2023-02-11T09:33:26.061Z,91.60
2023-02-11T09:37:49.913Z,91.70
2023-02-11T09:43:03.017Z,91.60
2023-02-11T09:47:33.609Z,91.70
2023-02-11T09:52:07.090Z,92.10
2023-02-11T09:56:43.001Z,92.70
2023-02-11T10:01:21.976Z,93.00
2023-02-11T10:06:16.342Z,92.70
2023-02-11T10:10:54.397Z,92.70
2023-02-11T10:15:38.831Z,92.20
2023-02-11T10:20:30.282Z,92.10
2023-02-11T10:24:58.531Z,92.10
2023-02-11T10:29:36.762Z,92.20
2023-02-11T10:34:05.563Z,92.10
2023-02-11T10:38:39.599Z,91.70
2023-02-11T10:43:07.083Z,91.20
2023-02-11T10:47:38.193Z,91.10
2023-02-11T10:52:23.745Z,90.90
2023-02-11T10:56:53.489Z,90.80
2023-02-11T11:01:24.454Z,90.70
2023-02-11T11:05:58.832Z,90.80
2023-02-11T11:10:43.848Z,90.90
2023-02-11T11:15:31.051Z,90.90
2023-02-11T11:19:54.981Z,91.10
2023-02-11T11:24:27.917Z,91.20
2023-02-11T11:29:04.353Z,91.60
2023-02-11T11:33:36.071Z,91.70
2023-02-11T11:38:07.545Z,91.50
2023-02-11T11:42:35.955Z,91.40
2023-02-11T11:47:28.678Z,91.20
2023-02-11T11:52:09.047Z,91.30
2023-02-11T11:56:35.920Z,91.50
2023-02-11T12:01:11.761Z,91.70
2023-02-11T12:05:47.620Z,91.20
2023-02-11T12:10:41.206Z,91.30
2023-02-11T12:15:25.714Z,91.40
2023-02-11T12:20:10.598Z,91.40
2023-02-11T12:25:11.280Z,91.50
2023-02-11T12:29:53.737Z,91.60
2023-02-11T12:34:40.729Z,91.70
2023-02-11T12:39:21.084Z,91.90
2023-02-11T12:43:48.622Z,91.70
2023-02-11T12:48:38.272Z,91.60
2023-02-11T12:53:19.068Z,91.50
2023-02-11T12:57:44.685Z,91.70
2023-02-11T13:02:23.665Z,92.00
2023-02-11T13:06:53.168Z,92.10
2023-02-11T13:11:21.388Z,92.10
2023-02-11T13:15:49.542Z,92.30
2023-02-11T13:20:25.082Z,92.40
2023-02-11T13:25:00.597Z,92.50
2023-02-11T13:29:32.974Z,92.70
2023-02-11T13:33:56.812Z,92.80
2023-02-11T13:38:23.910Z,92.80
2023-02-11T13:42:52.988Z,93.10
2023-02-11T13:47:28.546Z,93.30
2023-02-11T13:51:53.834Z,93.60
2023-02-11T13:56:30.121Z,93.70
2023-02-11T14:00:56.546Z,93.80
2023-02-11T14:05:49.628Z,93.80
2023-02-11T14:10:51.082Z,93.90
2023-02-11T14:15:37.598Z,93.90
2023-02-11T14:20:25.403Z,94.00
2023-02-11T14:24:53.371Z,94.20
2023-02-11T14:29:25.484Z,94.40
2023-02-11T14:34:07.244Z,94.60
2023-02-11T14:38:47.774Z,94.70
2023-02-11T14:43:15.004Z,94.80
2023-02-11T14:47:44.761Z,94.90
2023-02-11T14:52:20.691Z,95.10
2023-02-11T14:56:46.915Z,95.20
2023-02-11T15:01:27.884Z,95.40
2023-02-11T15:05:57.021Z,95.70
2023-02-11T15:10:29.679Z,95.80
2023-02-11T15:14:57.234Z,95.90
2023-02-11T15:19:28.789Z,95.80
2023-02-11T15:24:01.807Z,95.80
2023-02-11T15:28:28.945Z,95.90
2023-02-11T15:32:59.004Z,96.00
2023-02-11T15:37:24.989Z,96.20
2023-02-11T15:41:48.914Z,96.30
2023-02-11T15:46:15.622Z,96.50
2023-02-11T15:50:43.259Z,96.70
2023-02-11T15:55:03.897Z,97.00
2023-02-11T15:59:31.695Z,97.20
2023-02-11T16:03:55.731Z,97.40
2023-02-11T16:08:26.697Z,97.60
2023-02-11T16:12:56.083Z,97.80
2023-02-11T16:17:27.290Z,98.00
2023-02-11T16:21:51.727Z,98.30
2023-02-11T16:26:27.812Z,98.60
2023-02-11T16:30:54.778Z,98.80
2023-02-11T16:35:18.841Z,99.10
2023-02-11T16:39:45.477Z,99.20
2023-02-11T16:44:10.991Z,99.40
2023-02-11T16:48:35.342Z,99.60
2023-02-11T16:53:02.194Z,99.70
2023-02-11T16:57:30.010Z,99.90
2023-02-11T17:01:56.480Z,99.90
2023-02-11T17:06:20.695Z,99.90
2023-02-11T17:10:45.089Z,99.90
2023-02-11T17:15:09.749Z,99.90
2023-02-11T17:19:35.710Z,99.90
2023-02-11T17:23:59.642Z,99.90
2023-02-11T17:28:23.825Z,99.90
2023-02-11T17:32:48.354Z,99.90
2023-02-11T17:37:13.718Z,99.90
2023-02-11T17:41:38.414Z,99.90
2023-02-11T17:46:02.261Z,99.90
2023-02-11T17:50:28.877Z,99.90
2023-02-11T17:54:55.439Z,99.90
2023-02-11T17:59:19.486Z,99.90
2023-02-11T18:03:43.484Z,99.90
2023-02-11T18:08:08.816Z,99.90
2023-02-11T18:12:33.981Z,99.90
2023-02-11T18:16:57.790Z,99.90
2023-02-11T18:21:23.137Z,99.90
2023-02-11T18:25:47.042Z,99.90
2023-02-11T18:30:16.743Z,99.90
2023-02-11T18:34:41.456Z,99.90
2023-02-11T18:39:05.942Z,99.90
2023-02-11T18:43:31.659Z,99.90
2023-02-11T18:47:57.173Z,99.90
2023-02-11T18:52:21.107Z,99.90
2023-02-11T18:56:46.117Z,99.90
2023-02-11T19:01:14.985Z,99.90
2023-02-11T19:05:44.737Z,99.90
2023-02-11T19:10:10.198Z,99.90
2023-02-11T19:14:34.946Z,99.90
2023-02-11T19:18:58.835Z,99.90
2023-02-11T19:23:25.394Z,99.90
2023-02-11T19:27:49.296Z,99.90
2023-02-11T19:32:13.607Z,99.90
2023-02-11T19:36:37.357Z,99.90
2023-02-11T19:41:02.813Z,99.90
2023-02-11T19:45:27.511Z,99.90
2023-02-11T19:49:51.413Z,99.90
2023-02-11T19:54:15.307Z,99.90
2023-02-11T19:58:40.929Z,99.90
2023-02-11T20:03:04.794Z,99.90
2023-02-11T20:07:29.623Z,99.90
2023-02-11T20:11:53.608Z,99.90
2023-02-11T20:16:20.560Z,99.90
2023-02-11T20:20:44.545Z,99.90
2023-02-11T20:25:11.759Z,99.90
2023-02-11T20:29:35.869Z,99.90
2023-02-11T20:34:01.667Z,99.90
2023-02-11T20:38:25.600Z,99.90
2023-02-11T20:42:49.370Z,99.90
2023-02-11T20:47:13.994Z,99.90
2023-02-11T20:51:39.430Z,99.90
2023-02-11T20:56:04.318Z,99.90
2023-02-11T21:00:28.041Z,99.90
2023-02-11T21:04:51.790Z,99.90
2023-02-11T21:09:19.758Z,99.90
2023-02-11T21:13:44.646Z,99.90
2023-02-11T21:18:08.348Z,99.90
2023-02-11T21:22:32.166Z,99.90
2023-02-11T21:26:57.955Z,99.90
2023-02-11T21:31:25.107Z,99.90
2023-02-11T21:35:49.390Z,99.90
2023-02-11T21:40:14.911Z,99.90
2023-02-11T21:44:40.086Z,99.90
2023-02-11T21:49:04.126Z,99.90
2023-02-11T21:53:28.371Z,99.90
2023-02-11T21:57:52.308Z,99.90
2023-02-11T22:02:17.418Z,99.90
2023-02-11T22:06:41.533Z,99.90
2023-02-11T22:11:06.714Z,99.90
2023-02-11T22:15:30.843Z,99.90
2023-02-11T22:19:56.805Z,99.90
2023-02-11T22:24:21.026Z,99.90
2023-02-11T22:28:45.604Z,99.90
2023-02-11T22:33:09.634Z,99.90
2023-02-11T22:37:36.403Z,99.90
2023-02-11T22:42:00.439Z,99.90
2023-02-11T22:46:24.907Z,99.90
2023-02-11T22:50:48.786Z,99.90
2023-02-11T22:55:13.964Z,99.90
2023-02-11T22:59:38.051Z,99.90
2023-02-11T23:04:03.397Z,99.90
2023-02-11T23:08:28.024Z,99.90
2023-02-11T23:12:53.156Z,99.90
2023-02-11T23:17:17.091Z,99.90
2023-02-11T23:21:42.540Z,99.90
2023-02-11T23:26:09.790Z,99.90
2023-02-11T23:30:35.358Z,99.90
2023-02-11T23:34:59.526Z,99.90
2023-02-11T23:39:23.401Z,99.90
2023-02-11T23:43:51.306Z,99.90
2023-02-11T23:48:16.748Z,99.90
2023-02-11T23:52:40.802Z,99.90
2023-02-11T23:57:05.186Z,99.90
